createdAt,value
2022-09-30T04:55:38.145Z,99.90
2022-09-30T04:58:06.096Z,99.90
2022-09-30T05:00:34.210Z,99.90
2022-09-30T05:03:03.289Z,99.90
2022-09-30T05:05:31.639Z,99.90
2022-09-30T05:08:01.656Z,99.90
2022-09-30T05:10:30.146Z,99.90
2022-09-30T05:12:59.515Z,99.90
2022-09-30T05:15:27.988Z,99.90
2022-09-30T05:17:55.889Z,99.90
2022-09-30T05:20:23.835Z,99.90
2022-09-30T11:59:15.569Z,50.70
2022-09-30T12:01:46.719Z,47.20
2022-09-30T12:04:18.578Z,46.10
2022-09-30T12:06:51.542Z,40.60
2022-09-30T12:09:24.538Z,43.40
2022-09-30T12:12:04.065Z,44.40
2022-09-30T12:14:37.249Z,45.10
2022-09-30T12:17:11.992Z,47.40
2022-09-30T12:19:45.022Z,41.40
2022-09-30T12:22:16.769Z,45.80
2022-09-30T12:28:03.685Z,26.60
2022-09-30T12:31:35.337Z,35.40
2022-09-30T12:42:13.924Z,27.60
2022-09-30T12:45:27.143Z,35.80
2022-09-30T12:48:37.424Z,34.10
2022-09-30T12:51:18.814Z,39.70
2022-09-30T12:54:05.579Z,40.80
2022-09-30T12:57:03.719Z,38.00
2022-09-30T12:59:55.358Z,26.50
2022-09-30T13:02:46.234Z,24.00
2022-09-30T13:06:07.653Z,20.30
2022-09-30T13:09:09.543Z,24.20
2022-09-30T13:12:17.816Z,22.60
2022-09-30T13:15:56.639Z,13.00
2022-09-30T13:18:57.991Z,9.10
2022-09-30T13:21:26.382Z,8.40
2022-09-30T13:23:57.229Z,10.70
2022-09-30T13:26:40.180Z,10.50
2022-09-30T13:29:44.511Z,11.30
2022-09-30T13:32:12.884Z,15.30
2022-09-30T13:34:57.236Z,18.10
2022-09-30T13:37:39.124Z,14.70
2022-09-30T13:40:32.876Z,14.70
2022-09-30T13:43:06.285Z,13.50
2022-09-30T13:45:39.572Z,9.00
2022-09-30T13:48:14.302Z,7.60
2022-09-30T13:50:48.797Z,6.10
2022-09-30T13:53:28.636Z,7.40
2022-09-30T13:56:00.998Z,4.30
2022-09-30T13:58:45.919Z,5.00
2022-09-30T14:01:26.649Z,1.00
2022-09-30T14:40:55.863Z,1.00
2022-09-30T14:44:45.580Z,1.00
2022-09-30T14:51:55.529Z,1.00
2022-09-30T15:02:58.683Z,1.00
2022-09-30T15:32:08.291Z,1.00
2022-09-30T15:43:33.852Z,1.00
2022-09-30T15:50:32.409Z,1.00
2022-09-30T15:51:41.188Z,1.00
2022-09-30T16:55:26.336Z,20.90
2022-09-30T16:58:02.374Z,33.80
2022-09-30T17:00:36.562Z,38.10
2022-09-30T18:07:33.323Z,99.90
2022-09-30T18:10:02.447Z,99.90
2022-09-30T18:12:30.380Z,99.90
2022-09-30T18:14:59.630Z,99.90
2022-09-30T18:17:28.289Z,99.90
2022-09-30T18:19:56.356Z,99.90
2022-09-30T18:22:24.310Z,99.90
2022-09-30T18:25:11.026Z,99.90
2022-09-30T18:27:38.996Z,99.90
2022-09-30T18:30:08.516Z,99.90
2022-09-30T18:32:36.778Z,99.90
2022-09-30T18:35:07.117Z,99.90
2022-09-30T18:37:35.063Z,99.90
2022-09-30T18:40:04.743Z,99.90
2022-09-30T18:42:32.957Z,99.90
2022-09-30T18:45:00.932Z,99.90
2022-09-30T18:47:28.951Z,99.90
2022-09-30T18:49:57.362Z,99.90
2022-09-30T18:52:25.655Z,99.90
2022-09-30T18:54:53.539Z,99.90
2022-09-30T18:57:22.900Z,99.90
2022-09-30T18:59:50.838Z,99.90
2022-09-30T19:02:20.824Z,99.90
2022-09-30T19:04:49.154Z,99.90
2022-09-30T19:07:20.583Z,99.90
2022-09-30T19:09:48.629Z,99.90
2022-09-30T19:12:17.673Z,99.90
2022-09-30T19:14:47.872Z,99.90
2022-09-30T19:17:16.475Z,99.90
2022-09-30T19:19:46.007Z,99.90
2022-09-30T19:22:14.582Z,99.90
2022-09-30T19:24:43.834Z,99.90
2022-09-30T19:27:12.088Z,99.90
2022-09-30T19:29:40.532Z,99.90
2022-09-30T19:32:12.860Z,99.90
2022-09-30T19:34:41.026Z,99.90
2022-09-30T19:37:20.701Z,99.90
2022-09-30T19:39:49.317Z,99.90
2022-09-30T19:42:18.433Z,99.90
2022-09-30T19:44:46.443Z,99.90
2022-09-30T19:47:15.962Z,99.90
2022-09-30T19:49:43.859Z,99.90
2022-09-30T19:52:20.602Z,99.90
2022-09-30T19:54:50.809Z,99.90
2022-09-30T19:57:18.786Z,99.90
2022-09-30T19:59:46.832Z,99.90
2022-09-30T20:02:16.134Z,99.90
2022-09-30T20:04:45.412Z,99.90
2022-09-30T20:07:14.913Z,99.90
2022-09-30T20:09:43.690Z,99.90
2022-09-30T20:12:11.901Z,99.90
2022-09-30T20:14:57.241Z,99.90
2022-09-30T20:17:26.812Z,99.90
2022-09-30T20:20:12.207Z,99.90
2022-09-30T20:22:40.258Z,99.90
2022-09-30T20:25:09.205Z,99.90
2022-09-30T20:27:37.277Z,99.90
2022-09-30T20:30:06.491Z,99.90
2022-09-30T20:32:35.885Z,99.90
2022-09-30T20:35:04.088Z,99.90
2022-09-30T20:37:32.323Z,99.90
2022-09-30T20:40:00.632Z,99.90
2022-09-30T20:42:29.512Z,99.90
2022-09-30T20:45:03.084Z,99.90
2022-09-30T20:47:31.539Z,99.90
2022-09-30T20:50:00.875Z,99.90
2022-09-30T20:52:29.807Z,99.90
2022-09-30T20:55:00.444Z,99.90
2022-09-30T20:57:30.077Z,99.90
2022-09-30T20:59:59.202Z,99.90
2022-09-30T21:02:28.866Z,99.90
2022-09-30T21:04:58.237Z,99.90
2022-09-30T21:07:27.926Z,99.90
2022-09-30T21:09:55.952Z,99.90
2022-09-30T21:12:23.931Z,99.90
2022-09-30T21:14:51.911Z,99.90
2022-09-30T21:17:19.873Z,99.90
2022-09-30T21:19:47.836Z,99.90
2022-09-30T21:22:17.185Z,99.90
2022-09-30T21:24:47.782Z,99.90
2022-09-30T21:27:15.762Z,99.90
2022-09-30T21:29:44.148Z,99.90
2022-09-30T21:32:12.216Z,99.90
2022-09-30T21:34:40.254Z,99.90
2022-09-30T21:37:08.271Z,99.90
2022-09-30T21:39:36.276Z,99.90
2022-09-30T21:42:06.210Z,99.90
2022-09-30T21:44:34.181Z,99.90
2022-09-30T21:47:02.192Z,99.90
2022-09-30T21:49:30.119Z,99.90
2022-09-30T21:51:58.126Z,99.90
2022-09-30T21:54:26.405Z,99.90
2022-09-30T21:56:54.357Z,99.90
2022-09-30T21:59:25.418Z,99.90
2022-09-30T22:01:53.618Z,99.90
2022-09-30T22:04:21.632Z,99.90
2022-09-30T22:06:49.556Z,99.90
2022-09-30T22:09:17.441Z,99.90
2022-09-30T22:11:45.425Z,99.90
2022-09-30T22:14:13.363Z,99.90
2022-09-30T22:16:42.746Z,99.90
2022-09-30T22:19:10.834Z,99.90
2022-09-30T22:21:39.260Z,99.90
2022-09-30T22:24:09.286Z,99.90
2022-09-30T22:26:40.426Z,99.90
2022-09-30T22:53:50.702Z,99.90
2022-09-30T22:56:19.393Z,99.90
2022-09-30T22:58:47.358Z,99.90
2022-09-30T23:01:15.640Z,99.90
2022-09-30T23:03:43.716Z,99.90
2022-09-30T23:06:12.116Z,99.90
2022-09-30T23:08:42.538Z,99.90
2022-09-30T23:11:13.420Z,99.90
2022-09-30T23:13:41.643Z,99.90
2022-09-30T23:16:10.792Z,99.90
2022-09-30T23:18:40.333Z,99.90
2022-09-30T23:21:10.993Z,99.90
2022-09-30T23:23:40.261Z,99.90
2022-09-30T23:26:10.950Z,99.90
2022-09-30T23:28:41.273Z,99.90
2022-09-30T23:31:10.906Z,99.90
2022-09-30T23:33:40.211Z,99.90
2022-09-30T23:36:08.850Z,99.90
2022-09-30T23:38:36.760Z,99.90
2022-09-30T23:41:05.236Z,99.90
2022-09-30T23:43:35.128Z,99.90
2022-09-30T23:46:06.087Z,99.90
2022-09-30T23:48:34.810Z,99.90
2022-09-30T23:51:04.475Z,99.90
2022-09-30T23:53:34.043Z,99.90
2022-09-30T23:56:04.185Z,99.90
2022-09-30T23:58:34.037Z,99.90
